Language selection

My Weather Profile Weather Topics  | 

Lake of the Woods: Past 24 Hour Conditions

 

Thunder Bay Airport

06:00 AM EST 30 January 2023
Disclaimer

This table is a summary of hourly weather conditions for the past 24 hours.
Please note that these observations might not always be representative of weather conditions over their associated marine area.

Date / Time
(EST)
Wind(knots) Conditions Visibility(km) Pressure(kPa) Air tempC) Relative humidity(%) Dew pointC) Wind Chill
30 January 2023
6:00 WNW 3 Ice Crystals 8 102.7 -25 71 -29 -30
5:00 WSW 3 Ice Crystals 10 102.8 -27 70 -30 -32
4:00 W 3 Ice Crystals 13 102.8 -27 70 -31 -33
3:00 N 1 Ice Crystals 8 102.8 -27 70 -31 -29
2:00 W 4 Mostly Cloudy 24 102.8 -27 68 -31 -35
1:00 WSW 3 Clear 24 102.8 -24 65 -29 -29
0:00 WSW 5 Mainly Clear 24 102.8 -24 63 -29 -31
29 January 2023
23:00 WSW 6 Partly Cloudy 24 102.8 -22 62 -28 -31
22:00 W 9 Mostly Cloudy 24 102.8 -22 61 -27 -32
21:00 W 8 Mostly Cloudy 24 102.8 -21 59 -27 -30
20:00 W 7 Clear 24 102.7 -21 58 -27 -29
19:00 W 5 Clear 24 102.7 -20 55 -26 -26
18:00 W 9 Mainly Clear 32 102.7 -18 51 -26 -27
17:00 W 10 Partly Cloudy 32 102.7 -17 48 -26 -27
16:00 W 9 Mainly Sunny 32 102.7 -17 46 -26 -26
15:00 NW 8 Mainly Sunny 32 102.7 -18 47 -26 -26
14:00 WNW 9 Mainly Sunny 32 102.7 -18 47 -27 -27
13:00 WNW 11 Mainly Sunny 32 102.8 -19 50 -27 -29
12:00 SW 7 Mainly Sunny 24 102.9 -22 57 -28 -30
11:00 WSW 8 Mainly Sunny 32 102.9 -24 61 -29 -33
10:00 W 5 Mainly Sunny 32 103.0 -26 69 -30 -33
9:00 SW 4 Mainly Sunny 32 103.0 -29 69 -33 -37
8:00 WNW 5 Mainly Clear 24 103.0 -27 68 -32 -36
7:00 WSW 3 Clear 24 102.9 -28 71 -31 -33
6:00 WSW 4 Clear 24 102.9 -27 70 -31 -34

Zoom-in to make a selection

Map of Great Lakes - Lake Superior marine weather areas Mid Superior - 45001 East Superior - 45004 West Superior - 45006 Slate Island - 45136 Lake Of the Woods - 45148 Kenora Airport Royal Island Armstrong Airport Caribou Island Marathon Airport Pukaskwa National Park Thunder Bay Airport Welcome Island Little Flatland Island Sault Ste. Marie Airport Wawa Airport
Legend:
buoy Buoy
land station Land Station

Great Lakes - Lake Superior Area

Another Region

What we are doing

Date modified: